Latest METARs, TAFs and NOTAMs for EINN


---------------------------------------------------------------------------
	(OBSERVATIONS)
EINN 212330Z 29005KT 9999 FEW034 06/04 Q1038 NOSIG=
EINN 212300Z 32003KT 9999 FEW036 06/04 Q1038 NOSIG=
EINN 212230Z 33003KT 9999 FEW034 06/04 Q1038 NOSIG=
EINN 212200Z 29005KT 9999 FEW036 06/04 Q1038 NOSIG=
EINN 212130Z 28005KT 9999 FEW042 07/04 Q1037 NOSIG=
EINN 212100Z 30004KT 9999 SCT042 08/04 Q1037 NOSIG=
---------------------------------------------------------------------------
	(FC)
Sorry, FC For EINN Not Found
---------------------------------------------------------------------------
	(TERMINAL AREA FORECAST)
EINN 212300Z 2200/2224 VRB03KT 9999 FEW035
    TEMPO 2202/2207 33005KT PROB30
    TEMPO 2202/2208 4000 BR
    BECMG 2210/2212 28006KT
    BECMG 2213/2215 29011KT
    BECMG 2221/2223 25005KT=
---------------------------------------------------------------------------
	(NOTAMS)


EINN A2332/18 NO TAKE-OFFS PERMITTED BELOW 125M RVR. 01 SEP 00:01
    2018 UNTIL 01 DEC 23:59 2018 ESTIMATED. CREATED: 31 AUG 20:39
    2018

EINN B1142/15 HOLDING PROCEDURE CHANGED. RATE OF DESCENT IN HOLDING
    PATTERNS AMENDED TO: A STANDARD RATE OF DESCENT OF 1000FT
    PER MIN IN HOLDING PATTERNS WILL BE USED UNLESS OTHERWISE
    INSTRUCTED BY ATC. PILOTS MUST ADVISE ATC IF UNABLE TO COMPLY
    WITH THE STANDARD RATE OF DESCENT. REF AIP EINN AD 2.22 SECTION
    9. 02 OCT 18:07 2015 UNTIL PERM. CREATED: 01 MAY 11:24 2017

---------------------------------------------------------------------------